METAR Data
IDs: Format: Raw Decoded Include TAF

Data at: 0131 UTC 24 Sep 2018

KZZV 240053Z AUTO 00000KT 10SM CLR 17/14 A3016 RMK AO2 SLP211 T01670144
KZZV 232353Z AUTO 04003KT 10SM CLR 18/14 A3014 RMK AO2 SLP206 T01780139 10206 20178 53002
KZZV 232253Z AUTO 07005KT 10SM CLR 19/14 A3014 RMK AO2 SLP205 T01940139
KZZV 232153Z AUTO 05007KT 10SM CLR 20/14 A3013 RMK AO2 SLP201 T02000139
KZZV 232053Z AUTO 03005KT 10SM CLR 19/14 A3014 RMK AO2 SLP203 T01940139 57007
KZZV 231953Z AUTO 36005KT 10SM CLR 18/13 A3014 RMK AO2 SLP203 T01830133
KZZV 231853Z AUTO VRB04KT 10SM CLR 18/13 A3016 RMK AO2 SLP210 T01830133
KZZV 231753Z AUTO 05005KT 10SM CLR 18/13 A3016 RMK AO2 SLP210 T01830128 10183 20122 56010
KZZV 231653Z AUTO VRB05KT 10SM CLR 18/13 A3017 RMK AO2 SLP214 T01780128
KZZV 231553Z AUTO 03004KT 10SM CLR 17/12 A3018 RMK AO2 SLP216 T01720122
KZZV 231453Z AUTO VRB05KT 10SM FEW009 16/12 A3019 RMK AO2 SLP222 T01560117 53008
KZZV 231424Z AUTO 03003KT 10SM FEW009 14/12 A3019 RMK AO2 T01440117
KZZV 231353Z AUTO 04005KT 10SM CLR 14/11 A3018 RMK AO2 SLP219 T01390111
KZZV 231253Z AUTO 04004KT 10SM CLR 12/11 A3017 RMK AO2 SLP214 T01220106
KZZV 231153Z AUTO 03003KT 10SM CLR 12/11 A3017 RMK AO2 SLP213 70001 T01220106 10133 20122 53004
KZZV 231053Z AUTO 36004KT 10SM CLR 12/11 A3016 RMK AO2 SLP211 T01220106
KZZV 230953Z AUTO 03003KT 10SM OVC120 13/11 A3015 RMK AO2 SLP209 T01280111
KZZV 230853Z AUTO 01004KT 10SM BKN070 BKN120 13/11 A3015 RMK AO2 SLP209 T01280111 56011
KZZV 230753Z AUTO 00000KT 10SM BKN070 13/11 A3016 RMK AO2 SLP212 T01280111
KZZV 230653Z AUTO 36003KT 10SM CLR 13/11 A3018 RMK AO2 SLP218 T01280111
KZZV 230553Z AUTO 00000KT 10SM FEW090 13/11 A3019 RMK AO2 SLP220 60000 T01330111 10150 20128 58005
KZZV 230453Z AUTO 06003KT 10SM BKN085 14/12 A3019 RMK AO2 SLP222 T01390117 402170139
KZZV 230353Z AUTO 00000KT 10SM OVC090 14/12 A3021 RMK AO2 SLP227 T01390117
KZZV 230253Z AUTO 36003KT 10SM CLR 14/12 A3020 RMK AO2 SLP224 60000 T01440117 50004
KZZV 230153Z AUTO 07003KT 10SM CLR 14/12 A3021 RMK AO2 RAE0059 SLP227 P0000 T01440117
KZZV 230053Z AUTO 08004KT 10SM -RA SCT110 15/12 A3020 RMK AO2 RAB12 SLP225 P0000 T01500117
KZZV 222353Z AUTO 08003KT 10SM FEW055 BKN095 OVC120 15/12 A3019 RMK AO2 SLP220 60001 T01500122 10178 20150 58008
KZZV 222253Z AUTO 05003KT 10SM FEW080 OVC100 16/12 A3021 RMK AO2 RAB2156E27 SLP227 P0000 T01560117
KZZV 222153Z AUTO 06003KT 10SM FEW070 BKN095 BKN110 16/12 A3021 RMK AO2 RAE46 SLP229 P0001 T01560117
KZZV 222053Z AUTO 09005KT 10SM -RA FEW070 OVC110 16/11 A3021 RMK AO2 RAB39 SLP228 P0000 60000 T01610111 58008
KZZV 221953Z AUTO 02004KT 10SM FEW090 BKN120 17/11 A3022 RMK AO2 SLP230 T01670106
KZZV 221938Z AUTO 02004KT 10SM SCT029 BKN110 17/11 A3023 RMK AO2 T01670106
KZZV 221853Z AUTO 02006KT 10SM BKN027 17/11 A3024 RMK AO2 SLP235 T01720106
KZZV 221849Z AUTO 02005KT 10SM BKN027 17/11 A3024 RMK AO2
KZZV 221753Z AUTO 03007KT 10SM FEW026 17/11 A3024 RMK AO2 SLP237 T01720106 10183 20156 58002
KZZV 221653Z AUTO 02007KT 10SM FEW025 18/12 A3025 RMK AO2 SLP239 T01830117
KZZV 221650Z AUTO 01008KT 10SM SCT027 18/11 A3025 RMK AO2
KZZV 221607Z AUTO 04009KT 10SM BKN027 17/11 A3026 RMK AO2 T01720111
KZZV 221553Z AUTO 04008KT 10SM SCT027 18/12 A3025 RMK AO2 SLP238 T01780117
KZZV 221453Z AUTO 03008KT 10SM BKN023 17/12 A3025 RMK AO2 SLP238 T01720122 51013
KZZV 221405Z AUTO 07007KT 10SM BKN017 BKN023 18/13 A3025 RMK AO2 T01780128
KZZV 221353Z AUTO 05007KT 10SM SCT019 17/13 A3024 RMK AO2 SLP235 T01720128